sensor_id;sensor_type;location;lat;lon;timestamp;temperature;humidity
32977;DHT22;47687;50.842;4.450;2022-08-19T00:00:35;19.80;99.90
32977;DHT22;47687;50.842;4.450;2022-08-19T00:03:01;19.70;99.90
32977;DHT22;47687;50.842;4.450;2022-08-19T00:05:27;19.80;99.90
32977;DHT22;47687;50.842;4.450;2022-08-19T00:07:52;19.80;99.90
32977;DHT22;47687;50.842;4.450;2022-08-19T00:10:19;19.70;99.90
32977;DHT22;47687;50.842;4.450;2022-08-19T00:12:45;19.70;99.90
32977;DHT22;47687;50.842;4.450;2022-08-19T00:15:13;19.70;99.90
32977;DHT22;47687;50.842;4.450;2022-08-19T00:17:40;19.70;99.90
32977;DHT22;47687;50.842;4.450;2022-08-19T00:20:07;19.70;99.90
32977;DHT22;47687;50.842;4.450;2022-08-19T00:22:34;19.70;99.90
32977;DHT22;47687;50.842;4.450;2022-08-19T00:25:00;19.70;99.90
32977;DHT22;47687;50.842;4.450;2022-08-19T00:27:25;19.60;99.90
32977;DHT22;47687;50.842;4.450;2022-08-19T00:29:51;19.60;99.90
32977;DHT22;47687;50.842;4.450;2022-08-19T00:32:17;19.60;99.90
32977;DHT22;47687;50.842;4.450;2022-08-19T00:34:43;19.60;99.90
32977;DHT22;47687;50.842;4.450;2022-08-19T00:37:09;19.60;99.90
32977;DHT22;47687;50.842;4.450;2022-08-19T00:39:35;19.60;99.90
32977;DHT22;47687;50.842;4.450;2022-08-19T00:42:01;19.60;99.90
32977;DHT22;47687;50.842;4.450;2022-08-19T00:44:28;19.60;99.90
32977;DHT22;47687;50.842;4.450;2022-08-19T00:46:56;19.50;99.90
32977;DHT22;47687;50.842;4.450;2022-08-19T00:49:41;19.60;99.90
32977;DHT22;47687;50.842;4.450;2022-08-19T00:52:18;19.50;99.90
32977;DHT22;47687;50.842;4.450;2022-08-19T00:54:46;19.50;99.90
32977;DHT22;47687;50.842;4.450;2022-08-19T00:57:16;19.50;99.90
32977;DHT22;47687;50.842;4.450;2022-08-19T00:59:44;19.50;99.90
32977;DHT22;47687;50.842;4.450;2022-08-19T01:02:11;19.50;99.90
32977;DHT22;47687;50.842;4.450;2022-08-19T01:04:37;19.50;99.90
32977;DHT22;47687;50.842;4.450;2022-08-19T01:07:03;19.40;99.90
32977;DHT22;47687;50.842;4.450;2022-08-19T01:09:30;19.40;99.90
32977;DHT22;47687;50.842;4.450;2022-08-19T01:11:57;19.50;99.90
32977;DHT22;47687;50.842;4.450;2022-08-19T01:14:23;19.50;99.90
32977;DHT22;47687;50.842;4.450;2022-08-19T01:16:50;19.50;99.90
32977;DHT22;47687;50.842;4.450;2022-08-19T01:19:28;19.50;99.90
32977;DHT22;47687;50.842;4.450;2022-08-19T01:24:43;19.40;99.90
32977;DHT22;47687;50.842;4.450;2022-08-19T01:27:09;19.50;99.90
32977;DHT22;47687;50.842;4.450;2022-08-19T01:29:38;19.50;99.90
32977;DHT22;47687;50.842;4.450;2022-08-19T01:32:04;19.40;99.90
32977;DHT22;47687;50.842;4.450;2022-08-19T01:34:30;19.40;99.90
32977;DHT22;47687;50.842;4.450;2022-08-19T01:36:55;19.40;99.90
32977;DHT22;47687;50.842;4.450;2022-08-19T01:39:23;19.30;99.90
32977;DHT22;47687;50.842;4.450;2022-08-19T01:41:50;19.10;99.90
32977;DHT22;47687;50.842;4.450;2022-08-19T01:44:16;19.10;99.90
32977;DHT22;47687;50.842;4.450;2022-08-19T01:46:47;19.10;99.90
32977;DHT22;47687;50.842;4.450;2022-08-19T01:49:13;19.20;99.90
32977;DHT22;47687;50.842;4.450;2022-08-19T01:51:39;19.20;99.90
32977;DHT22;47687;50.842;4.450;2022-08-19T01:54:05;19.20;99.90
32977;DHT22;47687;50.842;4.450;2022-08-19T01:56:31;19.20;99.90
32977;DHT22;47687;50.842;4.450;2022-08-19T01:59:10;19.20;99.90
32977;DHT22;47687;50.842;4.450;2022-08-19T02:01:37;19.20;99.90
32977;DHT22;47687;50.842;4.450;2022-08-19T02:04:03;19.20;99.90
32977;DHT22;47687;50.842;4.450;2022-08-19T02:06:30;19.20;99.90
32977;DHT22;47687;50.842;4.450;2022-08-19T02:08:56;19.10;99.90
32977;DHT22;47687;50.842;4.450;2022-08-19T02:11:24;19.10;99.90
32977;DHT22;47687;50.842;4.450;2022-08-19T02:13:52;19.10;99.90
32977;DHT22;47687;50.842;4.450;2022-08-19T02:16:18;19.10;99.90
32977;DHT22;47687;50.842;4.450;2022-08-19T02:18:44;19.10;99.90
32977;DHT22;47687;50.842;4.450;2022-08-19T02:21:10;18.90;99.90
32977;DHT22;47687;50.842;4.450;2022-08-19T02:23:36;18.90;99.90
32977;DHT22;47687;50.842;4.450;2022-08-19T02:26:02;18.90;99.90
32977;DHT22;47687;50.842;4.450;2022-08-19T02:28:27;18.80;99.90
32977;DHT22;47687;50.842;4.450;2022-08-19T02:30:53;18.80;99.90
32977;DHT22;47687;50.842;4.450;2022-08-19T02:33:19;18.70;99.90
32977;DHT22;47687;50.842;4.450;2022-08-19T02:35:46;18.60;99.90
32977;DHT22;47687;50.842;4.450;2022-08-19T02:38:13;18.60;99.90
32977;DHT22;47687;50.842;4.450;2022-08-19T02:40:54;18.70;99.90
32977;DHT22;47687;50.842;4.450;2022-08-19T02:43:20;18.60;99.90
32977;DHT22;47687;50.842;4.450;2022-08-19T02:45:47;18.60;99.90
32977;DHT22;47687;50.842;4.450;2022-08-19T02:48:18;18.60;99.90
32977;DHT22;47687;50.842;4.450;2022-08-19T02:50:44;18.70;99.90
32977;DHT22;47687;50.842;4.450;2022-08-19T02:53:10;18.60;99.90
32977;DHT22;47687;50.842;4.450;2022-08-19T02:55:36;18.60;99.90
32977;DHT22;47687;50.842;4.450;2022-08-19T02:58:07;18.60;99.90
32977;DHT22;47687;50.842;4.450;2022-08-19T03:00:32;18.50;99.90
32977;DHT22;47687;50.842;4.450;2022-08-19T03:02:58;18.50;99.90
32977;DHT22;47687;50.842;4.450;2022-08-19T03:05:25;18.50;99.90
32977;DHT22;47687;50.842;4.450;2022-08-19T03:07:52;18.50;99.90
32977;DHT22;47687;50.842;4.450;2022-08-19T03:10:18;18.50;99.90
32977;DHT22;47687;50.842;4.450;2022-08-19T03:12:43;18.50;99.90
32977;DHT22;47687;50.842;4.450;2022-08-19T03:15:10;18.40;99.90
32977;DHT22;47687;50.842;4.450;2022-08-19T03:17:36;18.30;99.90
32977;DHT22;47687;50.842;4.450;2022-08-19T03:20:03;18.20;99.90
32977;DHT22;47687;50.842;4.450;2022-08-19T03:22:29;18.20;99.90
32977;DHT22;47687;50.842;4.450;2022-08-19T03:24:55;18.20;99.90
32977;DHT22;47687;50.842;4.450;2022-08-19T03:27:21;18.20;99.90
32977;DHT22;47687;50.842;4.450;2022-08-19T03:29:47;18.20;99.90
32977;DHT22;47687;50.842;4.450;2022-08-19T03:32:13;18.20;99.90
32977;DHT22;47687;50.842;4.450;2022-08-19T03:34:39;18.20;99.90
32977;DHT22;47687;50.842;4.450;2022-08-19T03:37:08;18.20;99.90
32977;DHT22;47687;50.842;4.450;2022-08-19T03:39:36;18.20;99.90
32977;DHT22;47687;50.842;4.450;2022-08-19T03:42:02;18.20;99.90
32977;DHT22;47687;50.842;4.450;2022-08-19T03:44:29;18.20;99.90
32977;DHT22;47687;50.842;4.450;2022-08-19T03:46:57;18.10;99.90
32977;DHT22;47687;50.842;4.450;2022-08-19T03:49:27;18.00;99.90
32977;DHT22;47687;50.842;4.450;2022-08-19T03:51:54;18.00;99.90
32977;DHT22;47687;50.842;4.450;2022-08-19T03:54:22;18.00;99.90
32977;DHT22;47687;50.842;4.450;2022-08-19T03:56:50;17.90;99.90
32977;DHT22;47687;50.842;4.450;2022-08-19T03:59:19;18.00;99.90
32977;DHT22;47687;50.842;4.450;2022-08-19T04:01:45;17.90;99.90
32977;DHT22;47687;50.842;4.450;2022-08-19T04:04:11;17.90;99.90
32977;DHT22;47687;50.842;4.450;2022-08-19T04:06:38;17.80;99.90
32977;DHT22;47687;50.842;4.450;2022-08-19T04:09:06;17.70;99.90
32977;DHT22;47687;50.842;4.450;2022-08-19T04:11:43;17.70;99.90
32977;DHT22;47687;50.842;4.450;2022-08-19T04:14:16;17.70;99.90
32977;DHT22;47687;50.842;4.450;2022-08-19T04:16:42;17.60;99.90
32977;DHT22;47687;50.842;4.450;2022-08-19T04:19:12;17.60;99.90
32977;DHT22;47687;50.842;4.450;2022-08-19T04:21:59;17.60;99.90
32977;DHT22;47687;50.842;4.450;2022-08-19T04:24:25;17.60;99.90
32977;DHT22;47687;50.842;4.450;2022-08-19T04:26:51;17.60;99.90
32977;DHT22;47687;50.842;4.450;2022-08-19T04:29:22;17.60;99.90
32977;DHT22;47687;50.842;4.450;2022-08-19T04:31:50;17.60;99.90
32977;DHT22;47687;50.842;4.450;2022-08-19T04:34:19;17.60;99.90
32977;DHT22;47687;50.842;4.450;2022-08-19T04:36:48;17.50;99.90
32977;DHT22;47687;50.842;4.450;2022-08-19T04:39:19;17.60;99.90
32977;DHT22;47687;50.842;4.450;2022-08-19T04:41:45;17.50;99.90
32977;DHT22;47687;50.842;4.450;2022-08-19T04:44:31;17.60;99.90
32977;DHT22;47687;50.842;4.450;2022-08-19T04:46:57;17.50;99.90
32977;DHT22;47687;50.842;4.450;2022-08-19T04:49:24;17.50;99.90
32977;DHT22;47687;50.842;4.450;2022-08-19T04:51:51;17.50;99.90
32977;DHT22;47687;50.842;4.450;2022-08-19T04:54:19;17.50;99.90
32977;DHT22;47687;50.842;4.450;2022-08-19T04:56:49;17.60;99.90
32977;DHT22;47687;50.842;4.450;2022-08-19T04:59:16;17.70;99.90
32977;DHT22;47687;50.842;4.450;2022-08-19T05:01:43;17.80;99.90
32977;DHT22;47687;50.842;4.450;2022-08-19T05:04:09;17.90;99.90
32977;DHT22;47687;50.842;4.450;2022-08-19T05:06:35;17.90;99.90
32977;DHT22;47687;50.842;4.450;2022-08-19T05:09:04;17.90;99.90
32977;DHT22;47687;50.842;4.450;2022-08-19T05:11:33;17.90;99.90
32977;DHT22;47687;50.842;4.450;2022-08-19T05:14:01;17.90;99.90
32977;DHT22;47687;50.842;4.450;2022-08-19T05:16:27;17.90;99.90
32977;DHT22;47687;50.842;4.450;2022-08-19T05:18:54;17.90;99.90
32977;DHT22;47687;50.842;4.450;2022-08-19T05:21:40;17.90;99.90
32977;DHT22;47687;50.842;4.450;2022-08-19T05:24:25;17.80;99.90
32977;DHT22;47687;50.842;4.450;2022-08-19T05:26:53;17.90;99.90
32977;DHT22;47687;50.842;4.450;2022-08-19T05:29:25;18.00;99.90
32977;DHT22;47687;50.842;4.450;2022-08-19T05:31:51;18.00;99.90
32977;DHT22;47687;50.842;4.450;2022-08-19T05:34:19;18.00;99.90
32977;DHT22;47687;50.842;4.450;2022-08-19T05:36:48;18.10;99.90
32977;DHT22;47687;50.842;4.450;2022-08-19T05:39:18;18.20;99.90
32977;DHT22;47687;50.842;4.450;2022-08-19T05:41:56;18.20;99.90
32977;DHT22;47687;50.842;4.450;2022-08-19T05:44:24;18.30;99.90
32977;DHT22;47687;50.842;4.450;2022-08-19T05:46:50;18.40;99.90
32977;DHT22;47687;50.842;4.450;2022-08-19T05:49:22;18.40;99.90
32977;DHT22;47687;50.842;4.450;2022-08-19T05:51:48;18.50;99.90
32977;DHT22;47687;50.842;4.450;2022-08-19T05:54:14;18.60;99.90
32977;DHT22;47687;50.842;4.450;2022-08-19T05:56:40;18.80;99.90
32977;DHT22;47687;50.842;4.450;2022-08-19T05:59:08;19.10;99.90
32977;DHT22;47687;50.842;4.450;2022-08-19T06:01:37;19.40;99.90
32977;DHT22;47687;50.842;4.450;2022-08-19T06:04:03;19.70;99.90
32977;DHT22;47687;50.842;4.450;2022-08-19T06:06:29;19.90;99.90
32977;DHT22;47687;50.842;4.450;2022-08-19T06:08:55;20.10;99.90
32977;DHT22;47687;50.842;4.450;2022-08-19T06:11:34;20.20;99.90
32977;DHT22;47687;50.842;4.450;2022-08-19T06:14:05;20.30;99.90
32977;DHT22;47687;50.842;4.450;2022-08-19T06:16:37;20.40;99.90
32977;DHT22;47687;50.842;4.450;2022-08-19T06:19:06;20.60;99.90
32977;DHT22;47687;50.842;4.450;2022-08-19T06:21:33;20.70;99.90
32977;DHT22;47687;50.842;4.450;2022-08-19T06:23:59;20.50;99.90
32977;DHT22;47687;50.842;4.450;2022-08-19T06:26:26;20.60;99.90
32977;DHT22;47687;50.842;4.450;2022-08-19T06:28:52;20.50;99.90
32977;DHT22;47687;50.842;4.450;2022-08-19T06:31:26;20.80;99.90
32977;DHT22;47687;50.842;4.450;2022-08-19T06:33:52;21.30;99.90
32977;DHT22;47687;50.842;4.450;2022-08-19T06:36:27;21.50;99.90
32977;DHT22;47687;50.842;4.450;2022-08-19T06:38:55;21.70;99.90
32977;DHT22;47687;50.842;4.450;2022-08-19T06:41:23;22.00;99.90
32977;DHT22;47687;50.842;4.450;2022-08-19T06:43:49;22.10;99.90
32977;DHT22;47687;50.842;4.450;2022-08-19T06:46:16;22.30;99.90
32977;DHT22;47687;50.842;4.450;2022-08-19T06:48:43;22.40;99.90
32977;DHT22;47687;50.842;4.450;2022-08-19T06:51:09;22.60;99.90
32977;DHT22;47687;50.842;4.450;2022-08-19T06:53:35;22.60;99.90
32977;DHT22;47687;50.842;4.450;2022-08-19T06:56:01;22.60;99.90
32977;DHT22;47687;50.842;4.450;2022-08-19T06:58:31;22.70;99.90
32977;DHT22;47687;50.842;4.450;2022-08-19T07:01:03;22.90;99.90
32977;DHT22;47687;50.842;4.450;2022-08-19T07:03:30;23.00;99.90
32977;DHT22;47687;50.842;4.450;2022-08-19T07:05:56;23.20;99.90
32977;DHT22;47687;50.842;4.450;2022-08-19T07:08:22;23.20;99.90
32977;DHT22;47687;50.842;4.450;2022-08-19T07:10:48;23.30;99.90
32977;DHT22;47687;50.842;4.450;2022-08-19T07:13:14;23.40;99.90
32977;DHT22;47687;50.842;4.450;2022-08-19T07:15:40;23.50;99.90
32977;DHT22;47687;50.842;4.450;2022-08-19T07:18:06;23.50;99.90
32977;DHT22;47687;50.842;4.450;2022-08-19T07:20:32;23.50;99.90
32977;DHT22;47687;50.842;4.450;2022-08-19T07:22:58;23.50;99.90
32977;DHT22;47687;50.842;4.450;2022-08-19T07:25:24;23.30;99.90
32977;DHT22;47687;50.842;4.450;2022-08-19T07:27:49;22.90;99.90
32977;DHT22;47687;50.842;4.450;2022-08-19T07:30:16;22.90;99.90
32977;DHT22;47687;50.842;4.450;2022-08-19T07:32:42;23.10;99.90
32977;DHT22;47687;50.842;4.450;2022-08-19T07:35:09;23.30;99.90
32977;DHT22;47687;50.842;4.450;2022-08-19T07:37:35;23.70;99.90
32977;DHT22;47687;50.842;4.450;2022-08-19T07:40:05;23.80;99.90
32977;DHT22;47687;50.842;4.450;2022-08-19T07:42:30;23.70;99.90
32977;DHT22;47687;50.842;4.450;2022-08-19T07:44:57;23.60;99.90
32977;DHT22;47687;50.842;4.450;2022-08-19T07:47:23;23.40;99.90
32977;DHT22;47687;50.842;4.450;2022-08-19T07:49:49;23.70;99.90
32977;DHT22;47687;50.842;4.450;2022-08-19T07:52:16;23.80;99.90
32977;DHT22;47687;50.842;4.450;2022-08-19T07:54:42;23.90;99.90
32977;DHT22;47687;50.842;4.450;2022-08-19T07:57:08;24.10;99.90
32977;DHT22;47687;50.842;4.450;2022-08-19T07:59:34;24.20;99.90
32977;DHT22;47687;50.842;4.450;2022-08-19T08:02:00;24.10;99.90
32977;DHT22;47687;50.842;4.450;2022-08-19T08:04:27;24.10;99.90
32977;DHT22;47687;50.842;4.450;2022-08-19T08:07:11;24.20;99.90
32977;DHT22;47687;50.842;4.450;2022-08-19T08:09:55;24.70;99.90
32977;DHT22;47687;50.842;4.450;2022-08-19T08:12:28;25.00;99.90
32977;DHT22;47687;50.842;4.450;2022-08-19T08:14:58;24.90;99.90
32977;DHT22;47687;50.842;4.450;2022-08-19T08:17:26;24.80;99.90
32977;DHT22;47687;50.842;4.450;2022-08-19T08:19:53;24.70;99.90
32977;DHT22;47687;50.842;4.450;2022-08-19T08:22:20;24.70;99.90
32977;DHT22;47687;50.842;4.450;2022-08-19T08:25:08;24.60;99.90
32977;DHT22;47687;50.842;4.450;2022-08-19T08:27:39;24.80;99.90
32977;DHT22;47687;50.842;4.450;2022-08-19T08:30:10;25.20;99.90
32977;DHT22;47687;50.842;4.450;2022-08-19T08:32:37;25.50;99.90
32977;DHT22;47687;50.842;4.450;2022-08-19T08:35:06;25.80;99.90
32977;DHT22;47687;50.842;4.450;2022-08-19T08:37:32;25.80;99.90
32977;DHT22;47687;50.842;4.450;2022-08-19T08:39:58;25.50;99.90
32977;DHT22;47687;50.842;4.450;2022-08-19T08:42:28;25.40;99.90
32977;DHT22;47687;50.842;4.450;2022-08-19T08:45:00;25.40;99.90
32977;DHT22;47687;50.842;4.450;2022-08-19T08:47:30;25.50;99.90
32977;DHT22;47687;50.842;4.450;2022-08-19T08:50:20;25.40;99.90
32977;DHT22;47687;50.842;4.450;2022-08-19T08:52:52;25.30;99.90
32977;DHT22;47687;50.842;4.450;2022-08-19T08:55:21;25.40;99.90
32977;DHT22;47687;50.842;4.450;2022-08-19T09:00:26;25.30;99.90
32977;DHT22;47687;50.842;4.450;2022-08-19T09:02:54;25.40;99.90
32977;DHT22;47687;50.842;4.450;2022-08-19T09:05:20;25.40;99.90
32977;DHT22;47687;50.842;4.450;2022-08-19T09:10:53;25.50;99.90
32977;DHT22;47687;50.842;4.450;2022-08-19T09:13:55;25.30;99.90
32977;DHT22;47687;50.842;4.450;2022-08-19T09:16:23;25.30;99.90
32977;DHT22;47687;50.842;4.450;2022-08-19T09:18:56;25.40;99.90
32977;DHT22;47687;50.842;4.450;2022-08-19T09:21:24;25.30;99.90
32977;DHT22;47687;50.842;4.450;2022-08-19T09:23:51;25.20;99.90
32977;DHT22;47687;50.842;4.450;2022-08-19T09:26:19;25.20;99.90
32977;DHT22;47687;50.842;4.450;2022-08-19T09:28:50;25.20;99.90
32977;DHT22;47687;50.842;4.450;2022-08-19T09:31:20;25.30;99.90
32977;DHT22;47687;50.842;4.450;2022-08-19T09:33:46;25.30;99.90
32977;DHT22;47687;50.842;4.450;2022-08-19T09:36:15;25.50;99.90
32977;DHT22;47687;50.842;4.450;2022-08-19T09:38:40;25.80;99.90
32977;DHT22;47687;50.842;4.450;2022-08-19T09:41:12;26.40;99.90
32977;DHT22;47687;50.842;4.450;2022-08-19T09:43:39;26.70;99.90
32977;DHT22;47687;50.842;4.450;2022-08-19T09:46:07;26.60;99.70
32977;DHT22;47687;50.842;4.450;2022-08-19T09:48:35;26.70;99.70
32977;DHT22;47687;50.842;4.450;2022-08-19T09:51:06;26.60;99.50
32977;DHT22;47687;50.842;4.450;2022-08-19T09:53:34;26.30;99.80
32977;DHT22;47687;50.842;4.450;2022-08-19T09:56:00;26.10;99.90
32977;DHT22;47687;50.842;4.450;2022-08-19T09:58:26;26.10;99.90
32977;DHT22;47687;50.842;4.450;2022-08-19T10:00:57;26.20;99.90
32977;DHT22;47687;50.842;4.450;2022-08-19T10:03:24;26.40;99.90
32977;DHT22;47687;50.842;4.450;2022-08-19T10:05:51;26.70;99.60
32977;DHT22;47687;50.842;4.450;2022-08-19T10:08:25;26.80;99.00
32977;DHT22;47687;50.842;4.450;2022-08-19T10:10:51;26.80;99.00
32977;DHT22;47687;50.842;4.450;2022-08-19T10:13:19;26.60;99.10
32977;DHT22;47687;50.842;4.450;2022-08-19T10:15:51;26.70;98.90
32977;DHT22;47687;50.842;4.450;2022-08-19T10:18:19;26.90;98.60
32977;DHT22;47687;50.842;4.450;2022-08-19T10:20:46;26.90;98.50
32977;DHT22;47687;50.842;4.450;2022-08-19T10:23:12;26.80;98.60
32977;DHT22;47687;50.842;4.450;2022-08-19T10:25:38;26.70;99.00
32977;DHT22;47687;50.842;4.450;2022-08-19T10:28:04;26.50;98.80
32977;DHT22;47687;50.842;4.450;2022-08-19T10:30:31;26.20;99.50
32977;DHT22;47687;50.842;4.450;2022-08-19T10:32:57;26.30;99.50
32977;DHT22;47687;50.842;4.450;2022-08-19T10:35:23;26.40;99.30
32977;DHT22;47687;50.842;4.450;2022-08-19T10:37:50;26.60;99.00
32977;DHT22;47687;50.842;4.450;2022-08-19T10:40:15;26.90;98.70
32977;DHT22;47687;50.842;4.450;2022-08-19T10:42:41;27.20;98.30
32977;DHT22;47687;50.842;4.450;2022-08-19T10:45:07;27.40;97.70
32977;DHT22;47687;50.842;4.450;2022-08-19T10:47:34;27.40;97.70
32977;DHT22;47687;50.842;4.450;2022-08-19T10:50:00;27.60;97.30
32977;DHT22;47687;50.842;4.450;2022-08-19T10:52:46;27.90;97.00
32977;DHT22;47687;50.842;4.450;2022-08-19T10:55:12;28.00;96.80
32977;DHT22;47687;50.842;4.450;2022-08-19T10:57:56;27.70;96.60
32977;DHT22;47687;50.842;4.450;2022-08-19T11:00:24;27.40;97.40
32977;DHT22;47687;50.842;4.450;2022-08-19T11:02:51;27.10;97.70
32977;DHT22;47687;50.842;4.450;2022-08-19T11:05:17;27.10;97.90
32977;DHT22;47687;50.842;4.450;2022-08-19T11:07:44;27.00;97.80
32977;DHT22;47687;50.842;4.450;2022-08-19T11:10:12;27.00;98.00
32977;DHT22;47687;50.842;4.450;2022-08-19T11:12:40;27.10;98.00
32977;DHT22;47687;50.842;4.450;2022-08-19T11:15:09;27.50;97.70
32977;DHT22;47687;50.842;4.450;2022-08-19T11:17:39;27.50;97.30
32977;DHT22;47687;50.842;4.450;2022-08-19T11:20:14;27.20;97.60
32977;DHT22;47687;50.842;4.450;2022-08-19T11:22:41;27.10;97.90
32977;DHT22;47687;50.842;4.450;2022-08-19T11:25:08;26.60;98.30
32977;DHT22;47687;50.842;4.450;2022-08-19T11:27:38;26.00;99.40
32977;DHT22;47687;50.842;4.450;2022-08-19T11:30:05;25.90;99.90
32977;DHT22;47687;50.842;4.450;2022-08-19T11:32:31;26.30;99.40
32977;DHT22;47687;50.842;4.450;2022-08-19T11:34:57;26.70;98.90
32977;DHT22;47687;50.842;4.450;2022-08-19T11:37:23;26.70;98.60
32977;DHT22;47687;50.842;4.450;2022-08-19T11:39:48;26.40;98.80
32977;DHT22;47687;50.842;4.450;2022-08-19T11:42:14;26.10;99.40
32977;DHT22;47687;50.842;4.450;2022-08-19T11:44:58;25.90;99.80
32977;DHT22;47687;50.842;4.450;2022-08-19T11:47:24;25.90;99.90
32977;DHT22;47687;50.842;4.450;2022-08-19T11:49:50;25.70;99.90
32977;DHT22;47687;50.842;4.450;2022-08-19T11:52:16;25.70;99.90
32977;DHT22;47687;50.842;4.450;2022-08-19T11:54:42;25.80;99.90
32977;DHT22;47687;50.842;4.450;2022-08-19T11:57:07;26.00;99.90
32977;DHT22;47687;50.842;4.450;2022-08-19T11:59:33;26.40;99.40
32977;DHT22;47687;50.842;4.450;2022-08-19T12:01:58;26.60;98.80
32977;DHT22;47687;50.842;4.450;2022-08-19T12:04:24;26.80;99.00
32977;DHT22;47687;50.842;4.450;2022-08-19T12:06:50;26.80;98.50
32977;DHT22;47687;50.842;4.450;2022-08-19T12:09:16;27.10;98.20
32977;DHT22;47687;50.842;4.450;2022-08-19T12:11:43;27.40;97.80
32977;DHT22;47687;50.842;4.450;2022-08-19T12:14:13;27.80;97.50
32977;DHT22;47687;50.842;4.450;2022-08-19T12:16:39;28.30;96.80
32977;DHT22;47687;50.842;4.450;2022-08-19T12:19:06;28.70;96.30
32977;DHT22;47687;50.842;4.450;2022-08-19T12:21:34;29.00;95.40
32977;DHT22;47687;50.842;4.450;2022-08-19T12:24:01;28.70;94.80
32977;DHT22;47687;50.842;4.450;2022-08-19T12:26:29;28.70;95.00
32977;DHT22;47687;50.842;4.450;2022-08-19T12:28:55;28.60;94.80
32977;DHT22;47687;50.842;4.450;2022-08-19T12:31:21;29.20;94.40
32977;DHT22;47687;50.842;4.450;2022-08-19T12:33:47;29.80;93.70
32977;DHT22;47687;50.842;4.450;2022-08-19T12:36:15;30.10;92.80
32977;DHT22;47687;50.842;4.450;2022-08-19T12:38:41;30.50;92.70
32977;DHT22;47687;50.842;4.450;2022-08-19T12:41:09;30.40;92.50
32977;DHT22;47687;50.842;4.450;2022-08-19T12:43:36;30.40;92.10
32977;DHT22;47687;50.842;4.450;2022-08-19T12:46:04;30.50;91.80
32977;DHT22;47687;50.842;4.450;2022-08-19T12:48:30;30.60;91.60
32977;DHT22;47687;50.842;4.450;2022-08-19T12:50:56;30.60;91.40
32977;DHT22;47687;50.842;4.450;2022-08-19T12:53:22;30.30;91.60
32977;DHT22;47687;50.842;4.450;2022-08-19T12:55:53;30.00;91.80
32977;DHT22;47687;50.842;4.450;2022-08-19T12:58:21;30.00;92.00
32977;DHT22;47687;50.842;4.450;2022-08-19T13:00:47;29.70;92.00
32977;DHT22;47687;50.842;4.450;2022-08-19T13:03:13;30.10;91.80
32977;DHT22;47687;50.842;4.450;2022-08-19T13:05:39;30.40;91.20
32977;DHT22;47687;50.842;4.450;2022-08-19T13:08:05;29.60;91.40
32977;DHT22;47687;50.842;4.450;2022-08-19T13:10:33;29.50;91.80
32977;DHT22;47687;50.842;4.450;2022-08-19T13:13:08;29.60;91.70
32977;DHT22;47687;50.842;4.450;2022-08-19T13:15:36;29.90;91.50
32977;DHT22;47687;50.842;4.450;2022-08-19T13:18:03;30.00;91.50
32977;DHT22;47687;50.842;4.450;2022-08-19T13:20:29;29.90;91.40
32977;DHT22;47687;50.842;4.450;2022-08-19T13:22:55;29.40;91.40
32977;DHT22;47687;50.842;4.450;2022-08-19T13:25:22;29.20;91.70
32977;DHT22;47687;50.842;4.450;2022-08-19T13:27:49;28.90;91.80
32977;DHT22;47687;50.842;4.450;2022-08-19T13:30:17;28.60;92.60
32977;DHT22;47687;50.842;4.450;2022-08-19T13:33:18;28.80;92.40
32977;DHT22;47687;50.842;4.450;2022-08-19T13:38:12;28.40;92.80
32977;DHT22;47687;50.842;4.450;2022-08-19T13:40:39;28.50;92.50
32977;DHT22;47687;50.842;4.450;2022-08-19T13:43:05;28.40;92.60
32977;DHT22;47687;50.842;4.450;2022-08-19T13:45:33;28.50;92.80
32977;DHT22;47687;50.842;4.450;2022-08-19T13:48:00;28.80;92.10
32977;DHT22;47687;50.842;4.450;2022-08-19T13:50:28;29.20;91.90
32977;DHT22;47687;50.842;4.450;2022-08-19T13:52:54;29.30;91.70
32977;DHT22;47687;50.842;4.450;2022-08-19T13:55:21;29.00;92.00
32977;DHT22;47687;50.842;4.450;2022-08-19T13:57:51;28.70;92.50
32977;DHT22;47687;50.842;4.450;2022-08-19T14:00:18;28.40;92.40
32977;DHT22;47687;50.842;4.450;2022-08-19T14:02:46;28.10;92.60
32977;DHT22;47687;50.842;4.450;2022-08-19T14:05:14;28.00;92.90
32977;DHT22;47687;50.842;4.450;2022-08-19T14:07:41;27.60;93.30
32977;DHT22;47687;50.842;4.450;2022-08-19T14:10:09;27.90;93.40
32977;DHT22;47687;50.842;4.450;2022-08-19T14:12:35;27.70;93.30
32977;DHT22;47687;50.842;4.450;2022-08-19T14:15:01;27.30;93.80
32977;DHT22;47687;50.842;4.450;2022-08-19T14:17:28;27.20;94.30
32977;DHT22;47687;50.842;4.450;2022-08-19T14:20:01;27.10;94.40
32977;DHT22;47687;50.842;4.450;2022-08-19T14:22:30;26.70;95.00
32977;DHT22;47687;50.842;4.450;2022-08-19T14:24:57;26.60;95.50
32977;DHT22;47687;50.842;4.450;2022-08-19T14:27:23;26.30;96.50
32977;DHT22;47687;50.842;4.450;2022-08-19T14:29:53;25.70;97.80
32977;DHT22;47687;50.842;4.450;2022-08-19T14:32:20;25.50;98.60
32977;DHT22;47687;50.842;4.450;2022-08-19T14:34:47;25.50;98.70
32977;DHT22;47687;50.842;4.450;2022-08-19T14:37:14;25.40;99.40
32977;DHT22;47687;50.842;4.450;2022-08-19T14:39:40;25.40;99.90
32977;DHT22;47687;50.842;4.450;2022-08-19T14:42:10;25.40;99.90
32977;DHT22;47687;50.842;4.450;2022-08-19T14:44:35;25.80;99.40
32977;DHT22;47687;50.842;4.450;2022-08-19T14:47:01;26.10;99.00
32977;DHT22;47687;50.842;4.450;2022-08-19T14:49:27;26.30;98.70
32977;DHT22;47687;50.842;4.450;2022-08-19T14:51:53;26.50;98.50
32977;DHT22;47687;50.842;4.450;2022-08-19T14:54:18;26.40;98.30
32977;DHT22;47687;50.842;4.450;2022-08-19T14:56:44;26.30;98.40
32977;DHT22;47687;50.842;4.450;2022-08-19T14:59:10;26.20;98.60
32977;DHT22;47687;50.842;4.450;2022-08-19T15:01:36;26.20;99.30
32977;DHT22;47687;50.842;4.450;2022-08-19T15:04:01;26.20;99.30
32977;DHT22;47687;50.842;4.450;2022-08-19T15:06:27;26.40;99.00
32977;DHT22;47687;50.842;4.450;2022-08-19T15:08:53;26.80;98.50
32977;DHT22;47687;50.842;4.450;2022-08-19T15:11:22;27.40;97.80
32977;DHT22;47687;50.842;4.450;2022-08-19T15:13:49;27.90;97.10
32977;DHT22;47687;50.842;4.450;2022-08-19T15:16:16;28.20;97.20
32977;DHT22;47687;50.842;4.450;2022-08-19T15:18:42;28.40;96.40
32977;DHT22;47687;50.842;4.450;2022-08-19T15:21:10;28.00;96.20
32977;DHT22;47687;50.842;4.450;2022-08-19T15:23:38;27.90;96.40
32977;DHT22;47687;50.842;4.450;2022-08-19T15:26:03;27.70;96.80
32977;DHT22;47687;50.842;4.450;2022-08-19T15:28:30;27.50;97.00
32977;DHT22;47687;50.842;4.450;2022-08-19T15:30:57;27.40;97.40
32977;DHT22;47687;50.842;4.450;2022-08-19T15:33:22;27.40;97.40
32977;DHT22;47687;50.842;4.450;2022-08-19T15:35:48;27.50;97.20
32977;DHT22;47687;50.842;4.450;2022-08-19T15:38:16;27.40;97.20
32977;DHT22;47687;50.842;4.450;2022-08-19T15:40:46;27.40;97.00
32977;DHT22;47687;50.842;4.450;2022-08-19T15:43:14;27.50;96.70
32977;DHT22;47687;50.842;4.450;2022-08-19T15:45:40;27.40;96.80